Amelia, Ohio
Current Conditions -  °F | °C
As of 2:53 PM on Monday 22 Dec 2014 (Local Time) from KLUK Reporting Station
Broken Clouds Broken Clouds  
Wind Chill: 11°   Ceiling: 11000
Heat Index: 11°   Visibility: 10mi
Dew Point:   Wind: 5mph
Humidity: 61%   Direction: 100°E
Pressure: 29.86"   Gusts: NA
Location:  39.03°N, 84.22°W
Report Text: KLUK 221953Z 10004KT 10SM BKN110 11/03 A2986 RMK AO2 SLP113 T01060033
Loading
Personal Weather Stations






























Interactive Weather Map New forecast layout! Learn more

10-Day Weather Forecast

Advertisements
Track Severe Weather on mobile